createdAt,value
2019-03-18T00:01:13.952Z,86.09
2019-03-18T00:03:43.478Z,86.16
2019-03-18T00:06:13.000Z,86.13
2019-03-18T00:08:42.642Z,85.98
2019-03-18T00:11:12.353Z,85.61
2019-03-18T00:13:41.883Z,85.43
2019-03-18T00:16:11.426Z,85.74
2019-03-18T00:18:41.035Z,85.93
2019-03-18T00:21:10.564Z,86.15
2019-03-18T00:23:40.294Z,86.08
2019-03-18T00:26:09.820Z,86.33
2019-03-18T00:28:39.446Z,86.38
2019-03-18T00:31:08.978Z,86.34
2019-03-18T00:33:38.494Z,86.11
2019-03-18T00:36:08.137Z,86.21
2019-03-18T00:38:37.661Z,86.09
2019-03-18T00:41:07.189Z,85.97
2019-03-18T00:43:36.703Z,85.90
2019-03-18T00:46:06.222Z,86.32
2019-03-18T00:48:35.860Z,86.55
2019-03-18T00:51:05.375Z,87.13
2019-03-18T00:53:34.997Z,86.68
2019-03-18T00:56:04.736Z,86.68
2019-03-18T00:58:34.363Z,86.66
2019-03-18T01:01:04.297Z,86.14
2019-03-18T01:03:33.827Z,86.44
2019-03-18T01:06:03.456Z,86.54
2019-03-18T01:08:33.487Z,86.72
2019-03-18T01:11:03.248Z,86.66
2019-03-18T01:13:32.841Z,86.75
2019-03-18T01:16:02.684Z,86.85
2019-03-18T01:18:32.305Z,86.90
2019-03-18T01:21:03.166Z,86.66
2019-03-18T01:23:32.903Z,86.79
2019-03-18T01:26:02.519Z,86.63
2019-03-18T01:28:32.247Z,86.79
2019-03-18T01:31:01.986Z,87.16
2019-03-18T01:33:31.604Z,87.06
2019-03-18T01:36:01.341Z,86.86
2019-03-18T01:38:30.857Z,86.93
2019-03-18T01:41:00.608Z,86.94
2019-03-18T01:43:30.322Z,86.94
2019-03-18T01:45:59.950Z,87.09
2019-03-18T01:48:29.580Z,87.30
2019-03-18T01:50:59.405Z,87.56
2019-03-18T01:53:28.978Z,87.58
2019-03-18T01:55:58.559Z,87.30
2019-03-18T01:58:28.396Z,87.49
2019-03-18T02:00:58.228Z,87.83
2019-03-18T02:03:27.864Z,87.91
2019-03-18T02:05:57.619Z,88.22
2019-03-18T02:08:27.225Z,88.18
2019-03-18T02:10:56.748Z,88.30
2019-03-18T02:13:27.597Z,88.40
2019-03-18T02:15:57.216Z,88.78
2019-03-18T02:18:26.850Z,88.75
2019-03-18T02:20:56.483Z,88.77
2019-03-18T02:23:26.111Z,88.80
2019-03-18T02:25:55.728Z,88.80
2019-03-18T02:28:25.675Z,88.77
2019-03-18T02:30:55.262Z,89.01
2019-03-18T02:33:25.947Z,89.45
2019-03-18T02:35:55.886Z,89.55
2019-03-18T02:38:25.627Z,89.56
2019-03-18T02:40:55.192Z,89.54
2019-03-18T02:43:24.977Z,89.49
2019-03-18T02:46:09.354Z,89.60
2019-03-18T02:48:26.343Z,89.64
2019-03-18T02:50:56.096Z,89.69
2019-03-18T02:53:25.830Z,89.63
2019-03-18T02:55:55.561Z,89.76
2019-03-18T02:58:25.227Z,89.68
2019-03-18T03:00:54.813Z,89.68
2019-03-18T03:03:24.657Z,89.89
2019-03-18T03:05:54.612Z,90.19
2019-03-18T03:08:24.370Z,90.49
2019-03-18T03:10:54.354Z,90.50
2019-03-18T03:13:23.970Z,90.51
2019-03-18T03:15:53.619Z,90.59
2019-03-18T03:18:23.450Z,90.64
2019-03-18T03:20:53.069Z,90.51
2019-03-18T03:23:22.636Z,90.40
2019-03-18T03:25:52.421Z,90.47
2019-03-18T03:28:22.069Z,90.56
2019-03-18T03:30:51.680Z,90.61
2019-03-18T03:33:21.411Z,90.74
2019-03-18T03:35:51.052Z,90.71
2019-03-18T03:38:20.865Z,90.59
2019-03-18T03:40:50.802Z,90.54
2019-03-18T03:43:20.325Z,90.50
2019-03-18T03:45:49.945Z,90.56
2019-03-18T03:48:19.890Z,90.51
2019-03-18T03:50:49.625Z,90.43
2019-03-18T03:53:19.150Z,90.48
2019-03-18T03:55:48.975Z,90.59
2019-03-18T03:58:18.814Z,90.44
2019-03-18T04:00:48.459Z,90.47
2019-03-18T04:03:18.268Z,90.65
2019-03-18T04:05:48.022Z,90.74
2019-03-18T04:08:17.731Z,90.83
2019-03-18T04:10:47.464Z,91.00
2019-03-18T04:13:17.084Z,91.05
2019-03-18T04:15:46.723Z,90.97
2019-03-18T04:18:16.341Z,90.83
2019-03-18T04:20:45.969Z,90.57
2019-03-18T04:23:15.717Z,90.35
2019-03-18T04:25:45.421Z,90.17
2019-03-18T04:28:15.068Z,89.98
2019-03-18T04:30:44.701Z,89.89
2019-03-18T04:33:14.414Z,89.86
2019-03-18T04:35:44.015Z,89.88
2019-03-18T04:38:13.770Z,89.91
2019-03-18T04:40:45.026Z,89.75
2019-03-18T04:43:14.659Z,89.60
2019-03-18T04:45:44.221Z,89.37
2019-03-18T04:48:14.946Z,89.24
2019-03-18T04:50:44.467Z,88.78
2019-03-18T04:53:14.190Z,88.28
2019-03-18T04:55:44.035Z,88.02
2019-03-18T04:58:13.779Z,87.64
2019-03-18T05:00:43.388Z,87.43
2019-03-18T05:03:13.217Z,87.15
2019-03-18T05:05:42.949Z,86.87
2019-03-18T05:08:12.577Z,86.11
2019-03-18T05:10:42.618Z,85.52
2019-03-18T05:13:12.511Z,84.49
2019-03-18T05:15:42.302Z,84.31
2019-03-18T05:18:12.514Z,84.16
2019-03-18T05:20:42.247Z,83.53
2019-03-18T05:23:11.972Z,82.88
2019-03-18T05:25:41.916Z,81.91
2019-03-18T05:28:11.748Z,81.73
2019-03-18T05:30:41.472Z,80.76
2019-03-18T05:33:11.204Z,80.72
2019-03-18T05:35:42.572Z,80.46
2019-03-18T05:38:12.518Z,80.51
2019-03-18T05:40:42.224Z,79.89
2019-03-18T05:43:11.969Z,80.42
2019-03-18T05:45:41.686Z,79.17
2019-03-18T05:48:11.323Z,78.12
2019-03-18T05:50:40.957Z,78.24
2019-03-18T05:53:10.593Z,77.62
2019-03-18T05:55:40.303Z,77.28
2019-03-18T05:58:09.834Z,76.88
2019-03-18T06:00:39.764Z,76.75
2019-03-18T06:03:09.505Z,75.86
2019-03-18T06:05:39.117Z,74.38
2019-03-18T06:08:11.514Z,63.10
2019-03-18T06:10:40.422Z,49.38
2019-03-18T06:13:10.973Z,39.96
2019-03-18T06:15:40.715Z,35.82
2019-03-18T06:18:10.431Z,33.90
2019-03-18T06:20:40.260Z,32.20
2019-03-18T06:23:09.992Z,29.83
2019-03-18T06:25:39.744Z,29.05
2019-03-18T06:28:10.709Z,27.42
2019-03-18T06:30:40.518Z,25.97
2019-03-18T06:33:10.349Z,25.55
2019-03-18T06:35:40.184Z,24.77
2019-03-18T06:38:10.926Z,23.81
2019-03-18T06:40:40.663Z,23.81
2019-03-18T06:43:10.286Z,25.58
2019-03-18T06:45:40.132Z,25.25
2019-03-18T06:48:09.754Z,24.75
2019-03-18T06:50:39.599Z,24.25
2019-03-18T06:53:09.230Z,26.03
2019-03-18T06:55:38.948Z,28.39
2019-03-18T06:58:08.676Z,28.55
2019-03-18T07:00:38.397Z,29.54
2019-03-18T07:03:08.028Z,31.86
2019-03-18T07:05:37.920Z,33.65
2019-03-18T07:08:07.923Z,33.79
2019-03-18T07:10:37.425Z,32.92
2019-03-18T07:13:07.050Z,31.18
2019-03-18T07:15:36.682Z,31.51
2019-03-18T07:18:17.625Z,31.87
2019-03-18T07:20:38.279Z,31.47
2019-03-18T07:23:07.913Z,34.31
2019-03-18T07:25:37.687Z,36.42
2019-03-18T07:28:07.318Z,40.29
2019-03-18T07:30:38.642Z,40.34
2019-03-18T07:33:08.364Z,38.95
2019-03-18T07:35:38.096Z,38.69
2019-03-18T07:38:08.853Z,37.67
2019-03-18T07:40:38.675Z,38.47
2019-03-18T07:43:08.418Z,36.66
2019-03-18T07:45:38.044Z,35.78
2019-03-18T07:48:07.665Z,35.07
2019-03-18T07:50:37.744Z,33.89
2019-03-18T07:53:07.356Z,34.42
2019-03-18T07:55:37.472Z,33.26
2019-03-18T07:58:07.205Z,33.76
2019-03-18T08:00:36.832Z,34.87
2019-03-18T08:03:06.777Z,36.59
2019-03-18T08:05:36.389Z,37.09
2019-03-18T08:08:06.161Z,36.48
2019-03-18T08:10:35.852Z,34.88
2019-03-18T08:13:05.401Z,34.73
2019-03-18T08:15:35.859Z,33.49
2019-03-18T08:18:06.570Z,34.54
2019-03-18T08:20:36.225Z,35.28
2019-03-18T08:23:05.852Z,34.61
2019-03-18T08:25:35.398Z,34.50
2019-03-18T08:28:05.308Z,32.44
2019-03-18T08:30:35.126Z,33.86
2019-03-18T08:33:04.855Z,32.89
2019-03-18T08:35:34.789Z,34.42
2019-03-18T08:38:04.413Z,35.57
2019-03-18T08:40:34.176Z,33.90
2019-03-18T08:43:03.878Z,34.56
2019-03-18T08:45:33.605Z,35.01
2019-03-18T08:48:03.238Z,30.73
2019-03-18T08:50:33.035Z,32.16
2019-03-18T08:53:02.820Z,32.16
2019-03-18T08:55:33.669Z,33.93
2019-03-18T08:58:03.377Z,34.34
2019-03-18T09:00:33.119Z,33.63
2019-03-18T09:03:02.693Z,32.35
2019-03-18T09:05:32.574Z,30.68
2019-03-18T09:08:03.083Z,30.68
2019-03-18T09:10:32.166Z,29.06
2019-03-18T09:13:01.917Z,31.84
2019-03-18T09:15:31.809Z,30.60
2019-03-18T09:18:02.468Z,30.25
2019-03-18T09:20:32.067Z,31.53
2019-03-18T09:23:01.854Z,31.51
2019-03-18T09:25:31.942Z,30.40
2019-03-18T09:28:01.640Z,28.62
2019-03-18T09:30:31.307Z,27.48
2019-03-18T09:33:01.039Z,27.57
2019-03-18T09:35:30.560Z,27.58
2019-03-18T09:38:00.294Z,27.91
2019-03-18T09:40:30.020Z,27.19
2019-03-18T09:42:59.749Z,27.49
2019-03-18T09:45:29.384Z,29.55
2019-03-18T09:47:59.218Z,28.82
2019-03-18T09:50:28.838Z,30.42
2019-03-18T09:52:58.532Z,29.89
2019-03-18T09:55:28.499Z,29.59
2019-03-18T09:57:58.157Z,30.18
2019-03-18T10:00:27.975Z,29.22
2019-03-18T10:02:57.642Z,28.86
2019-03-18T10:05:27.220Z,26.19
2019-03-18T10:07:57.400Z,27.92
2019-03-18T10:10:27.104Z,27.48
2019-03-18T10:12:56.815Z,28.94
2019-03-18T10:15:26.657Z,29.26
2019-03-18T10:17:56.477Z,31.54
2019-03-18T10:20:26.220Z,29.08
2019-03-18T10:22:55.945Z,28.22
2019-03-18T10:25:25.670Z,28.14
2019-03-18T10:27:55.311Z,29.15
2019-03-18T10:30:24.931Z,28.60
2019-03-18T10:32:54.669Z,29.03
2019-03-18T10:35:24.305Z,30.09
2019-03-18T10:37:53.916Z,32.67
2019-03-18T10:40:24.259Z,32.19
2019-03-18T10:42:53.788Z,30.83
2019-03-18T10:45:25.867Z,29.56
2019-03-18T10:47:55.194Z,28.72
2019-03-18T10:50:24.821Z,29.70
2019-03-18T10:52:54.567Z,29.40
2019-03-18T10:55:24.386Z,28.94
2019-03-18T10:57:54.252Z,27.70
2019-03-18T11:00:24.628Z,27.14
2019-03-18T11:02:55.655Z,27.50
2019-03-18T11:05:25.148Z,27.96
2019-03-18T11:07:54.785Z,28.42
2019-03-18T11:10:24.607Z,27.54
2019-03-18T11:12:54.234Z,28.77
2019-03-18T11:15:23.999Z,28.36
2019-03-18T11:17:53.694Z,27.82
2019-03-18T11:20:23.330Z,30.53
2019-03-18T11:22:53.167Z,30.51
2019-03-18T11:25:22.784Z,32.02
2019-03-18T11:27:52.401Z,30.83
2019-03-18T11:30:22.150Z,29.68
2019-03-18T11:32:51.974Z,30.34
2019-03-18T11:35:21.625Z,30.23
2019-03-18T11:37:51.942Z,28.41
2019-03-18T11:40:22.247Z,28.36
2019-03-18T11:42:51.332Z,27.85
2019-03-18T11:45:21.036Z,28.04
2019-03-18T11:47:50.872Z,27.09
2019-03-18T11:50:20.832Z,27.09
2019-03-18T11:52:50.426Z,26.20
2019-03-18T11:55:27.422Z,27.37
2019-03-18T11:57:57.055Z,26.68
2019-03-18T12:00:27.293Z,27.16
2019-03-18T12:02:57.322Z,26.23
2019-03-18T12:05:28.285Z,25.47
2019-03-18T12:07:57.917Z,26.32
2019-03-18T12:10:27.655Z,27.36
2019-03-18T12:12:58.389Z,27.58
2019-03-18T12:15:28.318Z,28.48
2019-03-18T12:17:57.751Z,28.13
2019-03-18T12:20:27.430Z,28.42
2019-03-18T12:22:57.132Z,27.57
2019-03-18T12:25:26.627Z,26.91
2019-03-18T12:27:56.267Z,27.00
2019-03-18T12:30:27.324Z,27.58
2019-03-18T12:32:56.849Z,26.92
2019-03-18T12:35:26.579Z,27.20
2019-03-18T12:37:56.099Z,27.61
2019-03-18T12:40:25.797Z,28.98
2019-03-18T12:42:55.459Z,28.69
2019-03-18T12:45:25.113Z,28.26
2019-03-18T12:47:54.620Z,29.11
2019-03-18T12:50:55.192Z,28.73
2019-03-18T12:52:58.795Z,28.17
2019-03-18T12:55:28.626Z,28.21
2019-03-18T12:57:58.299Z,27.57
2019-03-18T13:00:30.030Z,24.71
2019-03-18T13:02:59.744Z,24.98
2019-03-18T13:05:29.462Z,27.50
2019-03-18T13:07:59.316Z,27.07
2019-03-18T13:10:29.153Z,26.51
2019-03-18T13:12:58.891Z,30.09
2019-03-18T13:15:28.602Z,29.67
2019-03-18T13:17:58.233Z,27.52
2019-03-18T13:20:28.278Z,25.83
2019-03-18T13:22:58.010Z,26.70
2019-03-18T13:25:28.859Z,27.93
2019-03-18T13:27:58.583Z,27.96
2019-03-18T13:30:28.311Z,28.23
2019-03-18T13:32:58.052Z,28.00
2019-03-18T13:35:27.671Z,28.01
2019-03-18T13:37:57.309Z,27.83
2019-03-18T13:40:27.141Z,28.61
2019-03-18T13:42:56.987Z,29.50
2019-03-18T13:45:26.691Z,29.44
2019-03-18T13:47:56.316Z,30.33
2019-03-18T13:50:26.259Z,30.89
2019-03-18T13:52:55.980Z,30.92
2019-03-18T13:55:25.727Z,30.65
2019-03-18T13:57:55.554Z,31.01
2019-03-18T14:00:25.394Z,30.36
2019-03-18T14:02:55.109Z,30.39
2019-03-18T14:05:25.162Z,30.29
2019-03-18T14:08:00.948Z,30.93
2019-03-18T14:10:26.482Z,30.85
2019-03-18T14:12:56.191Z,30.72
2019-03-18T14:15:26.127Z,30.79
2019-03-18T14:17:55.983Z,29.96
2019-03-18T14:20:26.768Z,30.54
2019-03-18T14:22:56.547Z,30.65
2019-03-18T14:25:26.589Z,31.40
2019-03-18T14:27:56.311Z,31.89
2019-03-18T14:30:27.360Z,32.15
2019-03-18T14:32:57.301Z,32.06
2019-03-18T14:35:26.925Z,32.32
2019-03-18T14:37:58.290Z,32.01
2019-03-18T14:40:28.141Z,32.45
2019-03-18T14:42:58.979Z,31.94
2019-03-18T14:45:29.936Z,31.93
2019-03-18T14:47:59.679Z,31.61
2019-03-18T14:50:30.930Z,31.73
2019-03-18T14:53:00.665Z,31.98
2019-03-18T14:55:30.390Z,32.49
2019-03-18T14:58:00.266Z,32.92
2019-03-18T15:00:30.274Z,33.72
2019-03-18T15:02:59.991Z,34.74
2019-03-18T15:05:29.591Z,34.71
2019-03-18T15:07:59.457Z,35.94
2019-03-18T15:10:30.207Z,36.23
2019-03-18T15:13:01.029Z,37.00
2019-03-18T15:15:30.379Z,37.97
2019-03-18T15:18:00.226Z,38.73
2019-03-18T15:20:30.149Z,39.62
2019-03-18T15:23:01.832Z,40.41
2019-03-18T15:25:36.219Z,40.87
2019-03-18T15:28:05.992Z,40.78
2019-03-18T15:30:35.732Z,40.63
2019-03-18T15:33:05.348Z,41.20
2019-03-18T15:35:34.972Z,41.68
2019-03-18T15:38:07.166Z,41.94
2019-03-18T15:40:36.996Z,42.40
2019-03-18T15:43:06.836Z,42.60
2019-03-18T15:45:36.568Z,43.05
2019-03-18T15:48:06.292Z,43.58
2019-03-18T15:50:36.123Z,43.73
2019-03-18T15:53:05.966Z,43.98
2019-03-18T15:55:35.688Z,44.32
2019-03-18T15:58:05.420Z,44.79
2019-03-18T16:00:35.140Z,45.45
2019-03-18T16:03:04.871Z,45.80
2019-03-18T16:05:34.396Z,46.02
2019-03-18T16:08:04.033Z,46.42
2019-03-18T16:10:33.965Z,46.75
2019-03-18T16:13:04.843Z,47.05
2019-03-18T16:15:34.651Z,47.24
2019-03-18T16:18:04.495Z,47.66
2019-03-18T16:20:34.211Z,48.01
2019-03-18T16:23:03.978Z,48.27
2019-03-18T16:25:33.820Z,48.51
2019-03-18T16:28:03.614Z,48.67
2019-03-18T16:30:33.443Z,49.04
2019-03-18T16:33:03.523Z,49.37
2019-03-18T16:35:33.313Z,49.50
2019-03-18T16:38:03.141Z,49.62
2019-03-18T16:40:33.224Z,50.04
2019-03-18T16:43:03.108Z,50.44
2019-03-18T16:45:34.268Z,50.54
2019-03-18T16:48:04.006Z,50.95
2019-03-18T16:50:33.645Z,51.44
2019-03-18T16:53:03.488Z,51.74
2019-03-18T16:55:35.639Z,52.01
2019-03-18T16:58:07.326Z,52.34
2019-03-18T17:00:37.059Z,52.67
2019-03-18T17:03:06.795Z,53.06
2019-03-18T17:05:36.609Z,53.26
2019-03-18T17:08:06.472Z,53.48
2019-03-18T17:10:36.191Z,53.88
2019-03-18T17:13:05.908Z,54.07
2019-03-18T17:15:35.679Z,54.36
2019-03-18T17:18:05.709Z,54.55
2019-03-18T17:20:35.516Z,54.70
2019-03-18T17:23:05.247Z,54.80
2019-03-18T17:25:36.130Z,54.96
2019-03-18T17:28:05.816Z,55.25
2019-03-18T17:30:35.974Z,55.32
2019-03-18T17:33:05.822Z,55.51
2019-03-18T17:35:35.640Z,55.85
2019-03-18T17:38:05.467Z,56.00
2019-03-18T17:40:35.311Z,56.03
2019-03-18T17:43:04.914Z,56.24
2019-03-18T17:45:34.549Z,56.42
2019-03-18T17:48:04.491Z,56.62
2019-03-18T17:50:35.248Z,56.62
2019-03-18T17:53:05.170Z,56.87
2019-03-18T17:55:35.005Z,56.88
2019-03-18T17:58:04.750Z,56.99
2019-03-18T18:00:45.200Z,56.87
2019-03-18T18:03:16.937Z,56.83
2019-03-18T18:05:46.701Z,57.05
2019-03-18T18:08:18.312Z,57.16
2019-03-18T18:10:47.828Z,57.55
2019-03-18T18:13:17.629Z,57.80
2019-03-18T18:15:47.579Z,57.99
2019-03-18T18:18:17.410Z,58.31
2019-03-18T18:20:47.131Z,58.56
2019-03-18T18:23:16.865Z,58.99
2019-03-18T18:25:46.930Z,59.30
2019-03-18T18:28:16.732Z,59.59
2019-03-18T18:30:46.469Z,59.76
2019-03-18T18:33:16.407Z,59.97
2019-03-18T18:35:46.257Z,60.12
2019-03-18T18:38:16.058Z,60.05
2019-03-18T18:40:45.791Z,60.02
2019-03-18T18:43:15.461Z,60.17
2019-03-18T18:45:45.160Z,60.37
2019-03-18T18:48:17.022Z,60.60
2019-03-18T18:50:46.764Z,60.83
2019-03-18T18:53:26.047Z,61.03
2019-03-18T18:55:49.100Z,61.21
2019-03-18T18:58:18.806Z,61.32
2019-03-18T19:00:48.553Z,61.62
2019-03-18T19:03:18.191Z,61.83
2019-03-18T19:05:48.320Z,62.18
2019-03-18T19:08:18.138Z,62.18
2019-03-18T19:10:47.710Z,62.24
2019-03-18T19:13:17.861Z,62.66
2019-03-18T19:15:48.833Z,63.04
2019-03-18T19:18:18.712Z,63.20
2019-03-18T19:20:48.317Z,63.31
2019-03-18T19:23:19.495Z,63.17
2019-03-18T19:25:49.228Z,62.94
2019-03-18T19:28:18.962Z,62.89
2019-03-18T19:30:48.791Z,62.77
2019-03-18T19:33:18.733Z,62.68
2019-03-18T19:35:48.550Z,62.41
2019-03-18T19:38:18.696Z,62.64
2019-03-18T19:40:48.532Z,62.65
2019-03-18T19:43:18.466Z,62.40
2019-03-18T19:45:48.217Z,62.51
2019-03-18T19:48:18.016Z,62.32
2019-03-18T19:50:48.000Z,62.61
2019-03-18T19:53:17.715Z,62.49
2019-03-18T19:55:47.617Z,62.51
2019-03-18T19:58:17.354Z,62.41
2019-03-18T20:00:47.070Z,62.83
2019-03-18T20:03:18.210Z,63.13
2019-03-18T20:05:48.070Z,63.46
2019-03-18T20:08:17.704Z,64.26
2019-03-18T20:10:47.530Z,64.72
2019-03-18T20:13:17.481Z,65.23
2019-03-18T20:15:48.741Z,65.61
2019-03-18T20:18:18.355Z,65.95
2019-03-18T20:20:48.114Z,66.15
2019-03-18T20:23:19.578Z,66.41
2019-03-18T20:25:50.408Z,66.61
2019-03-18T20:28:20.149Z,66.82
2019-03-18T20:30:49.962Z,66.71
2019-03-18T20:33:20.736Z,66.75
2019-03-18T20:35:50.446Z,66.48
2019-03-18T20:38:20.119Z,66.28
2019-03-18T20:40:49.671Z,65.73
2019-03-18T20:43:19.888Z,64.85
2019-03-18T20:45:49.475Z,64.67
2019-03-18T20:48:20.555Z,63.89
2019-03-18T20:50:50.181Z,63.15
2019-03-18T20:53:20.112Z,63.08
2019-03-18T20:55:49.710Z,62.52
2019-03-18T20:58:19.387Z,61.90
2019-03-18T21:00:49.099Z,61.72
2019-03-18T21:03:18.848Z,61.56
2019-03-18T21:05:48.556Z,61.52
2019-03-18T21:08:18.281Z,61.84
2019-03-18T21:10:49.751Z,62.14
2019-03-18T21:13:19.379Z,62.40
2019-03-18T21:15:49.060Z,62.65
2019-03-18T21:18:18.810Z,62.86
2019-03-18T21:20:48.464Z,63.23
2019-03-18T21:23:18.093Z,63.49
2019-03-18T21:25:48.022Z,63.92
2019-03-18T21:28:17.681Z,64.41
2019-03-18T21:30:47.380Z,65.08
2019-03-18T21:33:17.332Z,65.47
2019-03-18T21:35:47.056Z,66.06
2019-03-18T21:38:16.635Z,66.73
2019-03-18T21:40:46.316Z,67.04
2019-03-18T21:43:16.038Z,67.33
2019-03-18T21:45:45.775Z,67.56
2019-03-18T21:48:15.504Z,67.70
2019-03-18T21:50:45.233Z,68.12
2019-03-18T21:53:14.763Z,68.45
2019-03-18T21:55:44.585Z,68.36
2019-03-18T21:58:14.219Z,68.62
2019-03-18T22:00:43.947Z,68.58
2019-03-18T22:03:13.671Z,68.43
2019-03-18T22:05:43.307Z,68.47
2019-03-18T22:08:13.235Z,68.52
2019-03-18T22:10:42.964Z,68.39
2019-03-18T22:13:12.693Z,68.64
2019-03-18T22:15:42.327Z,68.79
2019-03-18T22:18:11.957Z,68.81
2019-03-18T22:20:42.699Z,68.83
2019-03-18T22:23:12.531Z,69.02
2019-03-18T22:25:42.105Z,68.96
2019-03-18T22:28:13.329Z,69.06
2019-03-18T22:30:43.061Z,69.18
2019-03-18T22:33:12.689Z,69.37
2019-03-18T22:35:43.024Z,69.50
2019-03-18T22:38:12.785Z,69.98
2019-03-18T22:40:42.595Z,70.11
2019-03-18T22:43:12.431Z,70.11
2019-03-18T22:45:42.155Z,70.08
2019-03-18T22:48:11.881Z,70.17
2019-03-18T22:50:41.631Z,70.38
2019-03-18T22:53:11.337Z,70.52
2019-03-18T22:55:41.087Z,70.49
2019-03-18T22:58:11.009Z,70.64
2019-03-18T23:00:47.597Z,70.67
2019-03-18T23:03:17.422Z,70.91
2019-03-18T23:05:47.262Z,70.91
2019-03-18T23:08:16.992Z,70.90
2019-03-18T23:10:46.725Z,71.01
2019-03-18T23:13:16.343Z,71.04
2019-03-18T23:15:46.072Z,70.98
2019-03-18T23:18:15.611Z,71.07
2019-03-18T23:20:45.240Z,71.40
2019-03-18T23:23:15.976Z,71.34
2019-03-18T23:25:45.613Z,71.24
2019-03-18T23:28:16.473Z,71.50
2019-03-18T23:30:46.095Z,71.76
2019-03-18T23:33:15.823Z,72.05
2019-03-18T23:35:45.767Z,72.16
2019-03-18T23:38:15.389Z,72.51
2019-03-18T23:40:45.020Z,72.46
2019-03-18T23:43:14.948Z,72.59
2019-03-18T23:45:44.681Z,72.58
2019-03-18T23:48:14.407Z,72.77
2019-03-18T23:50:44.248Z,73.03
2019-03-18T23:53:13.811Z,73.35
2019-03-18T23:55:45.495Z,73.79
2019-03-18T23:58:15.065Z,73.81
